Tuesday, July 23, 2019, 10:14 PM EDT
Back to Local

KMHT, Manchester Airport

Location: Manchester, NH, United States Lat: 42.933
Local Time: 10:14 PM EDT ( 2:14 GMT) Lon: -71.433
Time Zone: US/Eastern Elev: 232 ft

Show me the last for .
Show Decoded

2019-07-23 21:53 METAR KMHT 240153Z 15003KT 10SM FEW100 BKN200 19/17 A2991 RMK AO2 SLP138
                 T01940167 =
2019-07-23 20:53 METAR KMHT 240053Z 19004KT 10SM FEW100 BKN200 21/17 A2989 RMK AO2 SLP133
                 T02060167 =
2019-07-23 19:53 METAR KMHT 232353Z 21004KT 10SM FEW090 BKN200 21/16 A2989 RMK AO2 SLP133
                 T02110156 10233 20200 53011 =
2019-07-23 18:53 METAR KMHT 232253Z 19004KT 10SM FEW090 BKN220 22/15 A2987 RMK AO2 SLP126
                 T02170150 =
2019-07-23 17:53 METAR KMHT 232153Z 23003KT 10SM FEW025 FEW090 BKN220 22/14 A2987 RMK AO2 SLP125
                 T02220139 =
2019-07-23 16:53 METAR KMHT 232053Z 35005KT 10SM FEW022 SCT070 BKN090 BKN250 23/13 A2986 RMK AO2
                 SLP121 T02330128 50001 =
2019-07-23 15:53 METAR KMHT 231953Z VRB05KT 10SM FEW022 BKN070 OVC120 21/13 A2987 RMK AO2 SLP124
                 T02110133 =
2019-07-23 14:53 METAR KMHT 231853Z VRB05KT 10SM FEW020 BKN065 OVC085 21/13 A2986 RMK AO2 SLP122
                 T02060128 =
2019-07-23 13:53 METAR KMHT 231753Z 36011KT 10SM FEW018 OVC050 20/13 A2985 RMK AO2 SLP121 60002
                 T02000133 10200 20167 51006 =
2019-07-23 13:00 METAR KMHT 231700Z 02008KT 10SM SCT022 OVC046 19/14 A2985 RMK AO2 T01890144 =
2019-07-23 12:53 METAR KMHT 231653Z 04007KT 10SM FEW014 BKN022 OVC046 18/14 A2985 RMK AO2 SLP119
                 T01830139 =
2019-07-23 12:33 METAR KMHT 231633Z 05006KT 10SM FEW014 BKN022 OVC048 18/15 A2985 RMK AO2
                 T01830150 =
2019-07-23 11:56 METAR KMHT 231556Z 06003KT 10SM FEW009 SCT024 OVC047 17/15 A2985 RMK AO2
                 T01720150 =
2019-07-23 11:53 METAR KMHT 231553Z VRB04KT 10SM SCT011 BKN024 OVC047 17/16 A2985 RMK AO2 RAE38
                 SLP119 P0000 T01720156 =
2019-07-23 11:44 METAR KMHT 231544Z 10004KT 10SM SCT008 BKN024 OVC047 17/15 A2985 RMK AO2 RAE38
                 P0000 T01670150 =
2019-07-23 10:53 METAR KMHT 231453Z 02007KT 6SM -RA BR BKN008 OVC014 17/16 A2984 RMK AO2 CIG
                 006V011 SLP114 P0001 60002 T01720156 50001 =
2019-07-23 10:51 METAR KMHT 231451Z 01007KT 7SM -RA BKN008 OVC012 17/16 A2984 RMK AO2 CIG 006V010
                 P0001 =
2019-07-23 10:39 METAR KMHT 231439Z VRB05KT 8SM -RA BKN010 BKN090 OVC110 17/16 A2984 RMK AO2
                 P0001 T01670156 =
2019-07-23 09:53 METAR KMHT 231353Z 04007KT 9SM -RA BKN043 OVC060 17/16 A2985 RMK AO2 SLP119
                 P0000 T01720156 =
2019-07-23 09:26 METAR KMHT 231326Z 03008KT 10SM -RA SCT026 BKN033 OVC060 17/15 A2984 RMK AO2
                 P0000 T01720150 =
2019-07-23 08:53 METAR KMHT 231253Z 02011KT 6SM -RA BR FEW010 BKN023 OVC029 17/16 A2983 RMK AO2
                 SLP114 P0001 T01720161 =
2019-07-23 08:41 METAR KMHT 231241Z 02010KT 6SM -RA BR SCT010 BKN016 OVC023 17/16 A2983 RMK AO2
                 P0001 T01720161 =
2019-07-23 08:25 METAR KMHT 231225Z 02009KT 5SM -RA BR OVC010 17/16 A2983 RMK AO2 CIG 007V014
                 P0001 T01720161 =
2019-07-23 07:57 METAR KMHT 231157Z 01006KT 5SM -RA BR BKN008 OVC012 18/17 A2984 RMK AO2 CIG
                 006V010 P0000 T01780167 =
2019-07-23 07:53 METAR KMHT 231153Z 01005KT 5SM -RA BR OVC010 18/17 A2984 RMK AO2 CIG 006V015
                 SLP115 P0004 60045 70106 T01780167 10183 20172 51010 =
2019-07-23 07:51 METAR KMHT 231151Z 01005KT 5SM -RA BR OVC010 18/17 A2984 RMK AO2 CIG 006V015
                 P0004 =
2019-07-23 07:10 METAR KMHT 231110Z 01007KT 6SM -RA BR BKN006 BKN016 OVC048 18/17 A2982 RMK AO2
                 P0000 T01780167 =
2019-07-23 07:02 METAR KMHT 231102Z 01006KT 6SM -RA BR SCT006 BKN010 OVC048 18/17 A2982 RMK AO2
                 P0000 T01780167 =
2019-07-23 06:53 METAR KMHT 231053Z 04006KT 5SM -RA BR BKN007 BKN022 OVC046 18/17 A2982 RMK AO2
                 SLP107 P0007 T01780167 =
2019-07-23 06:43 METAR KMHT 231043Z 03006KT 4SM -RA BR BKN007 OVC046 18/17 A2982 RMK AO2 P0007
                 T01780167 =
2019-07-23 06:29 METAR KMHT 231029Z 04005KT 3SM RA BR SCT007 SCT022 OVC048 18/17 A2982 RMK AO2
                 TWR VIS 6 P0005 T01780167 =
2019-07-23 06:07 METAR KMHT 231007Z 35004KT 5SM -RA BR FEW008 SCT016 OVC022 18/17 A2982 RMK AO2
                 P0000 T01780172 =
2019-07-23 06:00 METAR KMHT 231000Z 02003KT 5SM -RA BR FEW010 BKN022 OVC031 18/17 A2981 RMK AO2
                 P0000 T01780167 =
2019-07-23 05:53 METAR KMHT 230953Z 02006KT 5SM -RA BR SCT007 BKN014 OVC050 18/17 A2981 RMK AO2
                 SLP104 P0004 T01780167 =
2019-07-23 04:53 METAR KMHT 230853Z 02008KT 5SM RA BR BKN009 BKN012 OVC025 18/17 A2979 RMK AO2
                 SLP097 P0022 60030 T01780167 56007 =
2019-07-23 04:39 METAR KMHT 230839Z 04005KT 4SM RA BR BKN009 OVC012 18/17 A2978 RMK AO2 P0020
                 T01780172 =
2019-07-23 04:33 METAR KMHT 230833Z 03007KT 2 1/2SM +RA BR BKN006 OVC009 18/17 A2978 RMK AO2
                 P0019 T01780172 =
2019-07-23 03:53 METAR KMHT 230753Z 03005KT 5SM RA BR BKN009 OVC031 18/17 A2979 RMK AO2 SLP097
                 P0005 T01780172 =
2019-07-23 02:53 METAR KMHT 230653Z 01004KT 4SM -RA BR BKN005 BKN018 OVC024 18/17 A2979 RMK AO2
                 SLP099 P0003 T01830172 =
2019-07-23 01:53 METAR KMHT 230553Z 36007KT 3SM -RA BR SCT005 BKN010 OVC017 18/17 A2981 RMK AO2
                 SLP104 P0014 60039 T01780172 10194 20178 56008 =
2019-07-23 01:16 METAR KMHT 230516Z 35006KT 3SM RA BR SCT005 OVC010 18/17 A2981 RMK AO2 P0010
                 T01830172 =
2019-07-23 00:58 METAR KMHT 230458Z 34006KT 2SM +RA BR SCT007 OVC043 18/17 A2981 RMK AO2 P0003
                 T01830172 =
2019-07-23 00:53 METAR KMHT 230453Z 34006KT 4SM +RA BR FEW010 BKN038 OVC046 18/17 A2981 RMK AO2
                 SLP106 P0004 T01830172 402670183 =
2019-07-22 23:53 METAR KMHT 230353Z 03004KT 6SM RA BR FEW010 OVC038 18/17 A2981 RMK AO2 SLP104
                 P0007 T01830172 =
2019-07-22 23:38 METAR KMHT 230338Z 03008KT 7SM -RA SCT010 OVC038 18/17 A2980 RMK AO2 P0006
                 T01830172 =
2019-07-22 22:53 METAR KMHT 230253Z 01008KT 4SM RA BR SCT008 BKN029 OVC034 18/18 A2983 RMK AO2
                 SLP112 P0010 60014 T01830178 50001 =

Support USWX by starting your Amazon purchase here.